Time;durP1;ratioP1;P1;durP2;ratioP2;P2;SDS_P1;SDS_P2;PMS_P1;PMS_P2;Temp;Humidity;BMP_temperature;BMP_pressure;BME280_temperature;BME280_humidity;BME280_pressure;Samples;Min_cycle;Max_cycle;Signal;HPM_P1;HPM_P2
2021/07/14 00:01:39;;;;;;;21.17;12.77;;;;;;;;;;4995342;28;20179;-76
2021/07/14 00:04:07;;;;;;;18.52;13.23;;;;;;;;;;4987143;28;20082;-76
2021/07/14 00:06:36;;;;;;;23.33;14.38;;;;;;;;;;4985695;28;20061;-76
2021/07/14 00:09:05;;;;;;;20.05;13.75;;;;;;;;;;4987216;28;20103;-76
2021/07/14 00:11:38;;;;;;;23.38;14.65;;;;;;;;;;4988725;28;20046;-76
2021/07/14 00:17:15;;;;;;;23.45;13.20;;;;;;;;;;4993235;28;20758;-76
2021/07/14 00:22:30;;;;;;;22.52;13.20;;;;;;;;;;4993943;28;20141;-76
2021/07/14 00:24:58;;;;;;;19.83;14.15;;;;;;;;;;4993517;28;20050;-76
2021/07/14 00:27:25;;;;;;;23.67;14.35;;;;;;;;;;4994487;28;20089;-76
2021/07/14 00:29:55;;;;;;;23.73;14.38;;;;;;;;;;4993438;28;20054;-76
2021/07/14 00:32:23;;;;;;;23.05;14.32;;;;;;;;;;4989793;28;20054;-76
2021/07/14 00:34:50;;;;;;;21.15;14.05;;;;;;;;;;5003168;28;20081;-76
2021/07/14 00:37:18;;;;;;;20.35;14.98;;;;;;;;;;4996471;28;20061;-76
2021/07/14 00:39:48;;;;;;;17.67;13.38;;;;;;;;;;4979096;28;20046;-76
2021/07/14 00:42:15;;;;;;;16.90;12.88;;;;;;;;;;4999814;28;20056;-76
2021/07/14 00:44:42;;;;;;;22.15;12.63;;;;;;;;;;4995069;28;20069;-76
2021/07/14 00:47:10;;;;;;;29.92;14.63;;;;;;;;;;4992872;28;20140;-76
2021/07/14 00:49:37;;;;;;;20.48;14.20;;;;;;;;;;4980618;28;20762;-76
2021/07/14 00:52:05;;;;;;;21.27;14.25;;;;;;;;;;4986229;28;20138;-77
2021/07/14 00:54:32;;;;;;;22.42;14.65;;;;;;;;;;5004347;28;20881;-77
2021/07/14 00:56:59;;;;;;;21.48;13.70;;;;;;;;;;4987301;28;20129;-76
2021/07/14 00:59:26;;;;;;;20.02;13.85;;;;;;;;;;4999206;28;20081;-76
2021/07/14 01:01:54;;;;;;;20.75;13.88;;;;;;;;;;4996776;28;20080;-76
2021/07/14 01:04:30;;;;;;;23.10;15.27;;;;;;;;;;4990694;28;20080;-76
2021/07/14 01:06:57;;;;;;;21.38;14.65;;;;;;;;;;4993475;28;20057;-76
2021/07/14 01:09:29;;;;;;;22.00;14.40;;;;;;;;;;4998672;28;20137;-77
2021/07/14 01:12:01;;;;;;;25.17;14.10;;;;;;;;;;4984830;28;20042;-76
2021/07/14 01:14:36;;;;;;;23.15;15.20;;;;;;;;;;4991494;28;20148;-76
2021/07/14 01:17:05;;;;;;;22.33;14.55;;;;;;;;;;5005518;28;20152;-76
2021/07/14 01:19:38;;;;;;;22.23;14.25;;;;;;;;;;4984783;28;20081;-76
2021/07/14 01:22:13;;;;;;;22.33;14.68;;;;;;;;;;4997135;28;20050;-76
2021/07/14 01:24:56;;;;;;;21.52;14.68;;;;;;;;;;5003194;28;20045;-76
2021/07/14 01:27:24;;;;;;;24.85;13.60;;;;;;;;;;5006845;28;20073;-76
2021/07/14 01:29:52;;;;;;;25.50;14.18;;;;;;;;;;4999894;28;20070;-76
2021/07/14 01:32:22;;;;;;;21.65;15.00;;;;;;;;;;4999680;28;20054;-76
2021/07/14 01:34:53;;;;;;;20.02;14.55;;;;;;;;;;4997465;28;20746;-76
2021/07/14 01:37:22;;;;;;;21.10;14.55;;;;;;;;;;4988811;28;20078;-76
2021/07/14 01:39:55;;;;;;;20.08;13.93;;;;;;;;;;4980209;28;20051;-76
2021/07/14 01:42:23;;;;;;;20.15;14.52;;;;;;;;;;4986210;28;20153;-76
2021/07/14 01:44:53;;;;;;;24.02;14.88;;;;;;;;;;4997651;28;20052;-77
2021/07/14 01:47:21;;;;;;;21.42;14.93;;;;;;;;;;4996171;28;20133;-76
2021/07/14 01:49:51;;;;;;;22.27;15.43;;;;;;;;;;4996107;28;20053;-76
2021/07/14 01:52:20;;;;;;;23.52;15.10;;;;;;;;;;4999991;28;20732;-77
2021/07/14 01:54:49;;;;;;;25.05;15.18;;;;;;;;;;4987613;28;20789;-76
2021/07/14 01:57:17;;;;;;;24.42;15.70;;;;;;;;;;4987818;28;20065;-77
2021/07/14 01:59:46;;;;;;;19.45;14.65;;;;;;;;;;5001720;28;20142;-76
2021/07/14 02:02:15;;;;;;;21.88;14.73;;;;;;;;;;4988087;28;20050;-77
2021/07/14 02:04:43;;;;;;;22.30;15.02;;;;;;;;;;5001038;28;20108;-76
2021/07/14 02:07:24;;;;;;;21.60;15.32;;;;;;;;;;5007102;28;20068;-76
2021/07/14 02:09:52;;;;;;;21.15;14.63;;;;;;;;;;4982727;28;20085;-76
2021/07/14 02:12:25;;;;;;;25.55;15.65;;;;;;;;;;4980997;28;20042;-77
2021/07/14 02:14:55;;;;;;;26.88;15.80;;;;;;;;;;4986798;28;20558;-77
2021/07/14 02:17:23;;;;;;;25.08;15.35;;;;;;;;;;5000856;28;20554;-76
2021/07/14 02:20:01;;;;;;;22.85;15.18;;;;;;;;;;4991151;28;20137;-76
2021/07/14 02:22:29;;;;;;;28.95;15.90;;;;;;;;;;4994622;28;20149;-76
2021/07/14 02:24:56;;;;;;;23.58;14.98;;;;;;;;;;4987444;28;20050;-76
2021/07/14 02:27:23;;;;;;;24.70;15.15;;;;;;;;;;4994266;28;20054;-76
2021/07/14 02:29:51;;;;;;;26.48;15.77;;;;;;;;;;5000929;28;20069;-76
2021/07/14 02:32:19;;;;;;;24.83;15.88;;;;;;;;;;4987774;28;20141;-76
2021/07/14 02:34:47;;;;;;;21.83;15.70;;;;;;;;;;4987661;28;20074;-76
2021/07/14 02:37:17;;;;;;;27.23;16.08;;;;;;;;;;5006410;28;20050;-76
2021/07/14 02:39:47;;;;;;;24.38;15.73;;;;;;;;;;5000700;28;20089;-76
2021/07/14 02:42:18;;;;;;;25.50;15.85;;;;;;;;;;4993230;28;20144;-77
2021/07/14 02:44:45;;;;;;;24.48;16.23;;;;;;;;;;4995189;28;20137;-77
2021/07/14 02:47:13;;;;;;;24.67;16.83;;;;;;;;;;4986144;28;20061;-77
2021/07/14 02:49:41;;;;;;;26.73;15.95;;;;;;;;;;4984885;28;20074;-77
2021/07/14 02:52:10;;;;;;;34.15;17.10;;;;;;;;;;4981541;28;20054;-76
2021/07/14 02:54:42;;;;;;;24.63;16.25;;;;;;;;;;4994591;28;20053;-77
2021/07/14 02:57:12;;;;;;;28.13;16.45;;;;;;;;;;5002717;28;20053;-77
2021/07/14 02:59:40;;;;;;;23.90;16.83;;;;;;;;;;4985355;28;20653;-76
2021/07/14 03:02:08;;;;;;;26.42;17.80;;;;;;;;;;4984569;28;20763;-76
2021/07/14 03:04:36;;;;;;;34.53;17.90;;;;;;;;;;4997618;28;20164;-76
2021/07/14 03:07:08;;;;;;;28.27;16.83;;;;;;;;;;5004689;28;20402;-76
2021/07/14 03:09:39;;;;;;;25.65;17.40;;;;;;;;;;4992359;28;20130;-76
2021/07/14 03:12:07;;;;;;;23.83;17.48;;;;;;;;;;4986810;28;20078;-76
2021/07/14 03:14:36;;;;;;;22.90;15.27;;;;;;;;;;4988056;28;20515;-76
2021/07/14 03:17:04;;;;;;;26.65;16.83;;;;;;;;;;5006048;28;20049;-76
2021/07/14 03:19:32;;;;;;;26.15;17.38;;;;;;;;;;5000165;28;20580;-76
2021/07/14 03:22:00;;;;;;;28.98;17.02;;;;;;;;;;4999610;28;20128;-76
2021/07/14 03:24:28;;;;;;;32.67;17.35;;;;;;;;;;4985908;28;20065;-76
2021/07/14 03:26:55;;;;;;;31.55;18.67;;;;;;;;;;5002323;28;20174;-76
2021/07/14 03:29:23;;;;;;;26.05;18.45;;;;;;;;;;4993474;28;20057;-76
2021/07/14 03:31:52;;;;;;;27.92;18.10;;;;;;;;;;4986045;28;20172;-76
2021/07/14 03:34:19;;;;;;;25.65;17.58;;;;;;;;;;4986878;28;20061;-77
2021/07/14 03:36:48;;;;;;;24.38;17.85;;;;;;;;;;4984912;28;20141;-76
2021/07/14 03:39:17;;;;;;;29.98;18.70;;;;;;;;;;4988961;28;20443;-76
2021/07/14 03:41:47;;;;;;;32.42;18.85;;;;;;;;;;4982546;28;20174;-76
2021/07/14 03:44:16;;;;;;;29.25;17.83;;;;;;;;;;5005723;28;20085;-76
2021/07/14 03:46:44;;;;;;;31.65;18.63;;;;;;;;;;5002572;28;20046;-77
2021/07/14 03:49:12;;;;;;;29.00;18.23;;;;;;;;;;4982277;28;20088;-76
2021/07/14 03:51:41;;;;;;;28.63;17.70;;;;;;;;;;4978839;28;20086;-76
2021/07/14 03:54:09;;;;;;;35.28;18.52;;;;;;;;;;4986435;28;20057;-77
2021/07/14 03:56:37;;;;;;;32.63;17.02;;;;;;;;;;4996626;28;20632;-76
2021/07/14 03:59:04;;;;;;;26.83;17.10;;;;;;;;;;4997672;28;20048;-76
2021/07/14 04:01:32;;;;;;;27.35;17.23;;;;;;;;;;4976333;28;20558;-76
2021/07/14 04:03:59;;;;;;;22.38;15.20;;;;;;;;;;4991677;28;20135;-76
2021/07/14 04:06:33;;;;;;;26.13;16.45;;;;;;;;;;4990532;28;20109;-76
2021/07/14 04:09:19;;;;;;;23.85;16.90;;;;;;;;;;5004273;28;20131;-76
2021/07/14 04:11:48;;;;;;;29.08;17.27;;;;;;;;;;5000142;28;20486;-76
2021/07/14 04:14:15;;;;;;;33.50;18.95;;;;;;;;;;4997147;28;20042;-76
2021/07/14 04:16:42;;;;;;;41.25;19.27;;;;;;;;;;4986314;28;20050;-76
2021/07/14 04:19:09;;;;;;;27.75;18.90;;;;;;;;;;4998306;28;20049;-76
2021/07/14 04:21:37;;;;;;;27.95;17.60;;;;;;;;;;4978669;28;20073;-76
2021/07/14 04:24:05;;;;;;;30.10;17.92;;;;;;;;;;4990609;28;20544;-76
2021/07/14 04:26:33;;;;;;;33.70;17.25;;;;;;;;;;4994611;28;20129;-76
2021/07/14 04:29:01;;;;;;;28.90;18.25;;;;;;;;;;4992879;28;20054;-76
2021/07/14 04:31:28;;;;;;;30.02;18.10;;;;;;;;;;4984480;28;20459;-76
2021/07/14 04:33:55;;;;;;;27.63;18.75;;;;;;;;;;4997217;28;20098;-76
2021/07/14 04:36:23;;;;;;;28.65;17.88;;;;;;;;;;4990440;28;20138;-76
2021/07/14 04:38:51;;;;;;;31.70;18.73;;;;;;;;;;4989367;28;20104;-76
2021/07/14 04:41:18;;;;;;;32.40;19.60;;;;;;;;;;4978153;28;20052;-76
2021/07/14 04:43:45;;;;;;;31.25;17.67;;;;;;;;;;5008215;28;20056;-77
2021/07/14 04:46:12;;;;;;;34.75;18.63;;;;;;;;;;5003710;28;20693;-76
2021/07/14 04:48:39;;;;;;;28.13;18.40;;;;;;;;;;5008373;28;20045;-76
2021/07/14 04:51:06;;;;;;;34.45;17.00;;;;;;;;;;4991104;28;20082;-77
2021/07/14 04:53:34;;;;;;;26.42;16.95;;;;;;;;;;5004830;28;20147;-76
2021/07/14 04:56:01;;;;;;;30.67;18.23;;;;;;;;;;4998486;28;20163;-76
2021/07/14 04:58:29;;;;;;;29.20;18.20;;;;;;;;;;4990247;28;20078;-75
2021/07/14 05:00:56;;;;;;;36.10;17.90;;;;;;;;;;4987961;28;20138;-76
2021/07/14 05:03:24;;;;;;;23.13;17.50;;;;;;;;;;5000675;28;20052;-76
2021/07/14 05:05:52;;;;;;;27.10;17.60;;;;;;;;;;4992917;28;20051;-75
2021/07/14 05:08:19;;;;;;;27.67;19.15;;;;;;;;;;4995512;28;20046;-76
2021/07/14 05:10:48;;;;;;;28.45;18.83;;;;;;;;;;4986584;28;20141;-75
2021/07/14 05:13:16;;;;;;;30.17;18.52;;;;;;;;;;4992469;28;20120;-75
2021/07/14 05:15:44;;;;;;;27.75;18.33;;;;;;;;;;5002888;28;20060;-75
2021/07/14 05:18:14;;;;;;;30.27;19.50;;;;;;;;;;5003807;28;20930;-75
2021/07/14 05:20:42;;;;;;;31.65;18.25;;;;;;;;;;4979211;28;20351;-76
2021/07/14 05:23:09;;;;;;;30.70;18.60;;;;;;;;;;4990343;28;20123;-76
2021/07/14 05:25:36;;;;;;;41.17;18.77;;;;;;;;;;5008290;28;20144;-76
2021/07/14 05:28:04;;;;;;;31.23;18.60;;;;;;;;;;5003767;28;20085;-77
2021/07/14 05:30:32;;;;;;;25.08;16.73;;;;;;;;;;4987377;28;20940;-76
2021/07/14 05:32:59;;;;;;;29.42;16.85;;;;;;;;;;4999008;28;20054;-76
2021/07/14 05:35:26;;;;;;;27.48;17.30;;;;;;;;;;4998558;28;20117;-75
2021/07/14 05:37:53;;;;;;;33.10;17.95;;;;;;;;;;5001280;28;20129;-77
2021/07/14 05:40:21;;;;;;;27.60;16.48;;;;;;;;;;4991389;28;20088;-76
2021/07/14 05:42:49;;;;;;;30.75;17.33;;;;;;;;;;4991536;28;20141;-75
2021/07/14 05:45:16;;;;;;;21.20;16.02;;;;;;;;;;4996373;28;20124;-76
2021/07/14 05:47:50;;;;;;;23.63;16.55;;;;;;;;;;5002195;28;20138;-76
2021/07/14 05:50:21;;;;;;;25.65;15.43;;;;;;;;;;4999690;28;20155;-75
2021/07/14 05:52:49;;;;;;;23.77;15.93;;;;;;;;;;5008164;28;20133;-76
2021/07/14 05:55:16;;;;;;;23.63;17.00;;;;;;;;;;4997028;28;20750;-76
2021/07/14 05:57:43;;;;;;;34.13;16.42;;;;;;;;;;4996494;28;20133;-75
2021/07/14 06:00:11;;;;;;;21.30;15.63;;;;;;;;;;4985502;28;20050;-76
2021/07/14 06:02:38;;;;;;;22.75;15.18;;;;;;;;;;4984882;28;20064;-76
2021/07/14 06:05:06;;;;;;;26.08;15.75;;;;;;;;;;4995458;28;20148;-76
2021/07/14 06:07:33;;;;;;;23.20;14.45;;;;;;;;;;4996578;28;20691;-75
2021/07/14 06:10:00;;;;;;;20.40;15.90;;;;;;;;;;4998046;28;20661;-76
2021/07/14 06:12:27;;;;;;;21.65;15.95;;;;;;;;;;5000303;28;20507;-76
2021/07/14 06:14:54;;;;;;;21.00;15.43;;;;;;;;;;4997746;28;20062;-76
2021/07/14 06:17:22;;;;;;;23.85;14.57;;;;;;;;;;4998917;28;20079;-76
2021/07/14 06:19:49;;;;;;;22.25;14.07;;;;;;;;;;5000022;28;20057;-76
2021/07/14 06:22:16;;;;;;;21.38;14.98;;;;;;;;;;4988089;28;20464;-75
2021/07/14 06:24:43;;;;;;;26.10;15.98;;;;;;;;;;4988798;28;20146;-75
2021/07/14 06:27:17;;;;;;;21.30;15.00;;;;;;;;;;4987841;28;20058;-76
2021/07/14 06:29:44;;;;;;;26.00;15.90;;;;;;;;;;4984169;28;20614;-76
2021/07/14 06:32:29;;;;;;;23.33;14.77;;;;;;;;;;4991481;28;20426;-75
2021/07/14 06:34:56;;;;;;;31.48;15.00;;;;;;;;;;4991485;28;20054;-76
2021/07/14 06:37:23;;;;;;;19.88;13.93;;;;;;;;;;4988084;28;20060;-76
2021/07/14 06:39:51;;;;;;;20.90;13.95;;;;;;;;;;4979371;28;20081;-76
2021/07/14 06:42:18;;;;;;;17.83;14.20;;;;;;;;;;4985602;28;20169;-76
2021/07/14 06:44:45;;;;;;;22.85;13.90;;;;;;;;;;4987325;28;20050;-76
2021/07/14 06:47:13;;;;;;;20.83;14.07;;;;;;;;;;4987341;28;20057;-76
2021/07/14 06:49:40;;;;;;;19.77;13.50;;;;;;;;;;4983776;28;20135;-76
2021/07/14 06:52:08;;;;;;;18.48;12.48;;;;;;;;;;4991244;28;20129;-76
2021/07/14 06:54:38;;;;;;;19.67;13.00;;;;;;;;;;5001660;28;20109;-76
2021/07/14 06:57:06;;;;;;;20.77;13.38;;;;;;;;;;4986985;28;20176;-76
2021/07/14 06:59:34;;;;;;;20.17;13.93;;;;;;;;;;4984068;28;20141;-76
2021/07/14 07:02:04;;;;;;;19.98;13.85;;;;;;;;;;4996671;28;20085;-76
2021/07/14 07:04:31;;;;;;;18.83;13.25;;;;;;;;;;5001340;28;20162;-76
2021/07/14 07:06:59;;;;;;;17.48;15.20;;;;;;;;;;5005765;28;20149;-76
2021/07/14 07:09:26;;;;;;;17.55;12.80;;;;;;;;;;5001907;28;20412;-76
2021/07/14 07:11:53;;;;;;;19.88;13.70;;;;;;;;;;5000798;28;20084;-76
2021/07/14 07:14:21;;;;;;;21.85;15.15;;;;;;;;;;5004026;28;20164;-76
2021/07/14 07:16:48;;;;;;;16.33;13.88;;;;;;;;;;5003340;28;20089;-76
2021/07/14 07:19:16;;;;;;;20.15;14.85;;;;;;;;;;4988779;28;20058;-76
2021/07/14 07:21:43;;;;;;;25.77;15.50;;;;;;;;;;5000974;23;20136;-76
2021/07/14 07:24:11;;;;;;;22.98;15.02;;;;;;;;;;5035315;28;20130;-76
2021/07/14 07:26:38;;;;;;;23.65;15.43;;;;;;;;;;5038999;28;20040;-76
2021/07/14 07:29:10;;;;;;;20.40;15.10;;;;;;;;;;5043111;28;20159;-76
2021/07/14 07:31:38;;;;;;;22.65;15.25;;;;;;;;;;5037669;28;20857;-76
2021/07/14 07:34:05;;;;;;;23.20;16.67;;;;;;;;;;5025212;28;20152;-76
2021/07/14 07:36:32;;;;;;;22.95;15.98;;;;;;;;;;5022815;28;20063;-76
2021/07/14 07:38:59;;;;;;;21.48;15.73;;;;;;;;;;5022315;28;20617;-77
2021/07/14 07:41:27;;;;;;;20.75;15.75;;;;;;;;;;5015196;28;20152;-76
2021/07/14 07:43:55;;;;;;;26.35;16.83;;;;;;;;;;5033683;28;20517;-76
2021/07/14 07:46:22;;;;;;;24.65;16.70;;;;;;;;;;5035360;28;20139;-76
2021/07/14 07:48:50;;;;;;;23.85;15.93;;;;;;;;;;5026060;28;20434;-77
2021/07/14 07:54:11;;;;;;;23.58;17.55;;;;;;;;;;4980819;28;20086;-81
2021/07/14 07:56:38;;;;;;;31.80;20.50;;;;;;;;;;4998640;28;20121;-81
2021/07/14 07:59:05;;;;;;;30.63;19.98;;;;;;;;;;5009758;28;20086;-81
2021/07/14 08:01:35;;;;;;;39.42;20.95;;;;;;;;;;5003043;28;20054;-84
2021/07/14 08:07:32;;;;;;;48.78;25.38;;;;;;;;;;4976754;28;20138;-83
2021/07/14 08:10:00;;;;;;;44.40;26.55;;;;;;;;;;4965861;28;20511;-83
2021/07/14 08:12:27;;;;;;;49.95;27.13;;;;;;;;;;4989297;28;20046;-82
2021/07/14 08:14:55;;;;;;;45.40;26.98;;;;;;;;;;4989612;28;20535;-84
2021/07/14 08:17:22;;;;;;;41.85;26.98;;;;;;;;;;4974409;28;20093;-83
2021/07/14 08:19:50;;;;;;;43.90;29.38;;;;;;;;;;4965923;28;20047;-82
2021/07/14 08:22:18;;;;;;;52.35;29.90;;;;;;;;;;4981905;28;20093;-84
2021/07/14 08:24:45;;;;;;;53.10;30.35;;;;;;;;;;5011368;28;20089;-86
2021/07/14 08:27:12;;;;;;;56.45;33.90;;;;;;;;;;5011365;28;20125;-86
2021/07/14 08:29:40;;;;;;;58.13;33.67;;;;;;;;;;4989312;28;20046;-86
2021/07/14 08:32:08;;;;;;;51.88;31.50;;;;;;;;;;4977594;28;20089;-85
2021/07/14 08:34:35;;;;;;;53.75;33.47;;;;;;;;;;4974608;28;20103;-85
2021/07/14 08:37:02;;;;;;;52.78;33.35;;;;;;;;;;4991518;28;20054;-84
2021/07/14 08:39:29;;;;;;;60.30;34.53;;;;;;;;;;4970430;28;20043;-85
2021/07/14 08:42:01;;;;;;;60.13;34.88;;;;;;;;;;4999048;28;20081;-85
2021/07/14 08:44:28;;;;;;;54.25;33.92;;;;;;;;;;4993607;28;20507;-85
2021/07/14 08:46:55;;;;;;;57.45;34.30;;;;;;;;;;4993213;28;20684;-86
2021/07/14 08:49:23;;;;;;;50.15;32.72;;;;;;;;;;5007464;28;20046;-86
2021/07/14 08:51:52;;;;;;;54.42;35.22;;;;;;;;;;4986229;28;20077;-86
2021/07/14 08:54:20;;;;;;;54.53;34.85;;;;;;;;;;4994635;28;20134;-86
2021/07/14 08:56:51;;;;;;;57.63;34.05;;;;;;;;;;4993912;28;20139;-88
2021/07/14 08:59:20;;;;;;;58.65;34.53;;;;;;;;;;4989409;28;20049;-87
2021/07/14 09:01:48;;;;;;;60.55;37.42;;;;;;;;;;4972489;28;20491;-86
2021/07/14 09:04:16;;;;;;;61.60;37.60;;;;;;;;;;4987360;28;20874;-85
2021/07/14 09:06:43;;;;;;;63.25;37.63;;;;;;;;;;4989189;28;20677;-87
2021/07/14 09:09:10;;;;;;;59.60;35.97;;;;;;;;;;4989659;28;20053;-86
2021/07/14 09:11:49;;;;;;;67.70;38.28;;;;;;;;;;5003053;28;20073;-85
2021/07/14 09:14:25;;;;;;;76.07;40.35;;;;;;;;;;4989692;28;20058;-85
2021/07/14 09:16:55;;;;;;;60.88;36.90;;;;;;;;;;4993374;28;20053;-86
2021/07/14 09:19:32;;;;;;;65.55;39.00;;;;;;;;;;5005994;28;20104;-85
2021/07/14 09:21:59;;;;;;;79.80;42.05;;;;;;;;;;4984427;28;20050;-85
2021/07/14 09:24:29;;;;;;;69.88;40.33;;;;;;;;;;4991432;28;20055;-86
2021/07/14 09:26:57;;;;;;;65.57;39.67;;;;;;;;;;4973082;28;20105;-85
2021/07/14 09:29:24;;;;;;;58.88;36.47;;;;;;;;;;4972610;28;20050;-86
2021/07/14 09:31:52;;;;;;;65.05;37.80;;;;;;;;;;4970453;28;20982;-84
2021/07/14 09:34:24;;;;;;;55.83;36.47;;;;;;;;;;4976799;28;20145;-85
2021/07/14 09:36:55;;;;;;;57.30;36.88;;;;;;;;;;4991553;28;20086;-85
2021/07/14 09:42:58;;;;;;;54.25;36.78;;;;;;;;;;5057434;28;20670;-84
2021/07/14 09:45:51;;;;;;;56.42;37.25;;;;;;;;;;5070870;28;20084;-84
2021/07/14 09:48:19;;;;;;;51.70;34.70;;;;;;;;;;5049450;28;20049;-85
2021/07/14 09:50:48;;;;;;;41.33;30.83;;;;;;;;;;5043804;28;20361;-84
2021/07/14 09:53:19;;;;;;;40.45;30.10;;;;;;;;;;5045588;28;20044;-84
2021/07/14 09:55:51;;;;;;;46.75;31.60;;;;;;;;;;5060940;28;20076;-84
2021/07/14 09:58:26;;;;;;;43.20;30.05;;;;;;;;;;5053715;28;20159;-83
2021/07/14 10:00:53;;;;;;;;;;;;;;;;;;5038283;28;20086;-84
2021/07/14 10:03:20;;;;;;;39.47;28.50;;;;;;;;;;5038558;28;19932;-84
2021/07/14 10:05:48;;;;;;;38.83;28.40;;;;;;;;;;5025677;28;20049;-83
2021/07/14 10:08:18;;;;;;;37.15;28.90;;;;;;;;;;5032688;28;20112;-84
2021/07/14 10:10:45;;;;;;;37.08;27.15;;;;;;;;;;5024936;28;20136;-83
2021/07/14 10:13:13;;;;;;;42.20;28.17;;;;;;;;;;5045996;28;20126;-84
2021/07/14 10:15:40;;;;;;;39.13;28.25;;;;;;;;;;5046589;28;20045;-85
2021/07/14 10:18:10;;;;;;;39.00;28.05;;;;;;;;;;5045888;28;20094;-85
2021/07/14 10:20:44;;;;;;;41.03;27.95;;;;;;;;;;5043234;28;20143;-86
2021/07/14 10:23:12;;;;;;;40.50;28.70;;;;;;;;;;5054376;28;20588;-87
2021/07/14 10:25:41;;;;;;;40.13;27.75;;;;;;;;;;5053069;28;20057;-87
2021/07/14 10:28:20;;;;;;;40.28;27.50;;;;;;;;;;5052681;28;20114;-83
2021/07/14 10:30:49;;;;;;;31.27;25.20;;;;;;;;;;5038951;28;20136;-83
2021/07/14 10:33:18;;;;;;;33.72;25.00;;;;;;;;;;5041095;28;20712;-82
2021/07/14 10:35:46;;;;;;;33.35;25.00;;;;;;;;;;5035981;28;20124;-82
2021/07/14 10:38:42;;;;;;;33.25;24.42;;;;;;;;;;5047895;28;20092;-82
2021/07/14 10:41:09;;;;;;;32.33;23.42;;;;;;;;;;5032187;22;20042;-82
2021/07/14 10:43:38;;;;;;;30.88;23.42;;;;;;;;;;4990432;28;20149;-83
2021/07/14 10:46:23;;;;;;;28.83;24.20;;;;;;;;;;4990866;28;20042;-81
2021/07/14 10:48:51;;;;;;;34.72;25.60;;;;;;;;;;4987448;28;20050;-80
2021/07/14 10:51:19;;;;;;;38.83;26.02;;;;;;;;;;4992343;28;20085;-80
2021/07/14 10:53:49;;;;;;;35.03;23.98;;;;;;;;;;5007054;28;20085;-80
2021/07/14 10:56:17;;;;;;;27.90;21.88;;;;;;;;;;5008069;28;20137;-80
2021/07/14 10:58:46;;;;;;;29.83;21.38;;;;;;;;;;5009635;28;20054;-81
2021/07/14 11:01:13;;;;;;;25.27;20.05;;;;;;;;;;4984136;28;20054;-81
2021/07/14 11:03:44;;;;;;;23.15;19.40;;;;;;;;;;4989294;28;20133;-80
2021/07/14 11:06:13;;;;;;;21.63;17.63;;;;;;;;;;4989474;28;20086;-80
2021/07/14 11:08:46;;;;;;;23.17;18.23;;;;;;;;;;4989352;28;20054;-80
2021/07/14 11:11:15;;;;;;;22.80;18.20;;;;;;;;;;5002086;22;20092;-80
2021/07/14 11:13:44;;;;;;;23.90;16.83;;;;;;;;;;5015411;28;20085;-81
2021/07/14 11:16:28;;;;;;;19.98;16.48;;;;;;;;;;5025113;28;20128;-80
2021/07/14 11:19:01;;;;;;;21.10;15.13;;;;;;;;;;5012566;28;20077;-80
2021/07/14 11:21:52;;;;;;;19.55;14.75;;;;;;;;;;4997465;28;20164;-80
2021/07/14 11:24:39;;;;;;;18.92;15.52;;;;;;;;;;5001063;28;20089;-79
2021/07/14 11:27:18;;;;;;;20.77;15.48;;;;;;;;;;5005746;28;20133;-79
2021/07/14 11:29:47;;;;;;;16.80;14.98;;;;;;;;;;5000187;28;20108;-79
2021/07/14 11:32:35;;;;;;;19.33;14.80;;;;;;;;;;5003159;28;20077;-79
2021/07/14 11:35:09;;;;;;;16.08;14.35;;;;;;;;;;5004405;28;20088;-79
2021/07/14 11:37:42;;;;;;;17.88;13.75;;;;;;;;;;5006345;28;20053;-79
2021/07/14 11:40:25;;;;;;;20.08;13.00;;;;;;;;;;5001943;28;20045;-79
2021/07/14 11:42:54;;;;;;;20.58;12.35;;;;;;;;;;5007685;28;20081;-79
2021/07/14 11:45:36;;;;;;;17.98;11.88;;;;;;;;;;5006416;28;20490;-79
2021/07/14 11:48:15;;;;;;;17.65;13.10;;;;;;;;;;5004573;28;20558;-79
2021/07/14 11:50:47;;;;;;;16.88;12.40;;;;;;;;;;4998445;28;20133;-79
2021/07/14 11:53:34;;;;;;;19.33;13.43;;;;;;;;;;5005975;28;20050;-79
2021/07/14 11:56:13;;;;;;;17.90;13.85;;;;;;;;;;5005990;28;20840;-79
2021/07/14 11:58:43;;;;;;;16.42;13.18;;;;;;;;;;5005625;28;20089;-79
2021/07/14 12:01:16;;;;;;;17.55;12.60;;;;;;;;;;4998380;28;20049;-79
2021/07/14 12:04:02;;;;;;;21.13;14.43;;;;;;;;;;5004684;28;20585;-79
2021/07/14 12:06:39;;;;;;;17.65;13.45;;;;;;;;;;5004788;28;20104;-79
2021/07/14 12:09:16;;;;;;;19.40;14.90;;;;;;;;;;5004787;28;20653;-79
2021/07/14 12:11:43;;;;;;;20.80;14.43;;;;;;;;;;4999452;28;20054;-79
2021/07/14 12:14:11;;;;;;;18.58;13.10;;;;;;;;;;5007235;28;20048;-78
2021/07/14 12:16:38;;;;;;;21.85;15.38;;;;;;;;;;5011043;28;20079;-80
2021/07/14 12:19:06;;;;;;;21.05;13.93;;;;;;;;;;5013684;28;20058;-81
2021/07/14 12:21:33;;;;;;;22.92;13.57;;;;;;;;;;5001008;28;20054;-81
2021/07/14 12:24:00;;;;;;;17.80;13.57;;;;;;;;;;5009584;28;20847;-80
2021/07/14 12:26:28;;;;;;;19.30;13.82;;;;;;;;;;5008938;28;20098;-80
2021/07/14 12:28:55;;;;;;;24.10;13.98;;;;;;;;;;5006401;28;20052;-80
2021/07/14 12:31:24;;;;;;;19.40;14.45;;;;;;;;;;4995984;28;20137;-78
2021/07/14 12:33:53;;;;;;;18.42;14.18;;;;;;;;;;5004105;28;20050;-81
2021/07/14 12:36:26;;;;;;;21.65;14.27;;;;;;;;;;5009804;28;20048;-81
2021/07/14 12:38:56;;;;;;;28.48;14.48;;;;;;;;;;5009955;28;20128;-81
2021/07/14 12:41:24;;;;;;;25.15;14.02;;;;;;;;;;4987162;28;20099;-82
2021/07/14 12:44:01;;;;;;;22.20;14.40;;;;;;;;;;5020674;28;20081;-81
2021/07/14 12:46:30;;;;;;;23.15;13.80;;;;;;;;;;5017310;28;20089;-81
2021/07/14 12:49:11;;;;;;;19.80;13.55;;;;;;;;;;5009653;28;20056;-82
2021/07/14 12:51:38;;;;;;;17.48;13.05;;;;;;;;;;4980120;28;20050;-81
2021/07/14 12:54:05;;;;;;;24.30;13.88;;;;;;;;;;4988967;28;20097;-81
2021/07/14 12:56:36;;;;;;;24.10;13.18;;;;;;;;;;5008616;28;20157;-81
2021/07/14 12:59:04;;;;;;;18.85;13.32;;;;;;;;;;5007926;28;20752;-81
2021/07/14 13:01:31;;;;;;;18.52;13.05;;;;;;;;;;4998453;28;20089;-81
2021/07/14 13:03:59;;;;;;;22.52;12.50;;;;;;;;;;5007878;28;20064;-79
2021/07/14 13:06:27;;;;;;;18.83;13.18;;;;;;;;;;5010977;28;20093;-79
2021/07/14 13:08:56;;;;;;;21.63;12.43;;;;;;;;;;5010919;28;20045;-79
2021/07/14 13:11:24;;;;;;;19.13;12.45;;;;;;;;;;4998845;28;20140;-79
2021/07/14 13:13:51;;;;;;;20.38;11.90;;;;;;;;;;5011557;28;20760;-78
2021/07/14 13:16:25;;;;;;;21.35;11.15;;;;;;;;;;5011552;28;20104;-78
2021/07/14 13:18:54;;;;;;;23.00;12.75;;;;;;;;;;5012877;28;20053;-78
2021/07/14 13:21:25;;;;;;;19.15;11.55;;;;;;;;;;5000740;28;20062;-79
2021/07/14 13:24:07;;;;;;;27.27;11.55;;;;;;;;;;5009314;28;20089;-78
2021/07/14 13:26:34;;;;;;;20.73;11.82;;;;;;;;;;5009824;28;20129;-77
2021/07/14 13:29:02;;;;;;;15.75;11.10;;;;;;;;;;5007357;28;20832;-78
2021/07/14 13:31:32;;;;;;;17.67;11.93;;;;;;;;;;5002492;28;20125;-77
2021/07/14 13:34:08;;;;;;;17.55;10.77;;;;;;;;;;5009926;28;20081;-77
2021/07/14 13:36:37;;;;;;;22.25;9.82;;;;;;;;;;5007830;28;20109;-77
2021/07/14 13:39:28;;;;;;;14.27;9.38;;;;;;;;;;5007940;28;20133;-77
2021/07/14 13:41:57;;;;;;;17.67;9.93;;;;;;;;;;4986252;28;20132;-78
2021/07/14 13:44:29;;;;;;;20.85;10.50;;;;;;;;;;5008628;28;20553;-78
2021/07/14 13:46:57;;;;;;;16.63;8.80;;;;;;;;;;5012843;28;20129;-78
2021/07/14 13:49:26;;;;;;;20.95;9.50;;;;;;;;;;5004451;28;20056;-78
2021/07/14 13:51:53;;;;;;;15.55;8.82;;;;;;;;;;5000956;28;20137;-78
2021/07/14 13:54:25;;;;;;;19.48;10.15;;;;;;;;;;5006844;28;20054;-78
2021/07/14 13:56:56;;;;;;;21.83;9.20;;;;;;;;;;5009553;28;20127;-78
2021/07/14 13:59:24;;;;;;;24.20;12.13;;;;;;;;;;5005964;28;20129;-78
2021/07/14 14:02:00;;;;;;;24.30;10.52;;;;;;;;;;5004690;28;20097;-78
2021/07/14 14:04:28;;;;;;;16.25;10.70;;;;;;;;;;5010865;28;20060;-78
2021/07/14 14:06:58;;;;;;;20.67;11.18;;;;;;;;;;5008892;28;20149;-78
2021/07/14 14:09:26;;;;;;;21.00;10.63;;;;;;;;;;5006004;28;20711;-78
2021/07/14 14:11:54;;;;;;;16.80;10.52;;;;;;;;;;5002481;28;20116;-78
2021/07/14 14:14:22;;;;;;;22.23;10.95;;;;;;;;;;5007685;28;20058;-78
2021/07/14 14:16:49;;;;;;;18.70;10.63;;;;;;;;;;5009658;28;20081;-78
2021/07/14 14:19:17;;;;;;;18.63;10.88;;;;;;;;;;5006056;28;20450;-78
2021/07/14 14:21:52;;;;;;;18.15;10.13;;;;;;;;;;5003103;28;20096;-78
2021/07/14 14:24:20;;;;;;;20.90;10.40;;;;;;;;;;5008241;28;20669;-78
2021/07/14 14:26:51;;;;;;;18.88;10.35;;;;;;;;;;5009626;28;20093;-78
2021/07/14 14:29:19;;;;;;;18.33;10.98;;;;;;;;;;5005050;28;20089;-78
2021/07/14 14:31:50;;;;;;;18.15;11.02;;;;;;;;;;5001928;28;20125;-78
2021/07/14 14:34:18;;;;;;;18.75;11.32;;;;;;;;;;5006483;28;20053;-78
2021/07/14 14:36:45;;;;;;;17.13;9.73;;;;;;;;;;5005544;28;20161;-78
2021/07/14 14:39:13;;;;;;;25.58;10.35;;;;;;;;;;5003377;28;20146;-78
2021/07/14 14:41:40;;;;;;;19.48;12.30;;;;;;;;;;5000491;28;20137;-78
2021/07/14 14:44:08;;;;;;;15.60;9.98;;;;;;;;;;5009413;28;20104;-78
2021/07/14 14:46:35;;;;;;;17.77;10.65;;;;;;;;;;5008785;28;20455;-78
2021/07/14 14:49:03;;;;;;;17.13;11.13;;;;;;;;;;5006050;28;20074;-78